createdAt,value
2022-10-05T00:00:37.471Z,98761.67
2022-10-05T00:03:13.144Z,98759.89
2022-10-05T00:05:45.414Z,98753.77
2022-10-05T00:08:20.182Z,98748.48
2022-10-05T00:10:52.942Z,98750.79
2022-10-05T00:13:25.151Z,98744.31
2022-10-05T00:16:01.380Z,98738.20
2022-10-05T00:18:34.212Z,98732.98
2022-10-05T00:28:22.217Z,98734.92
2022-10-05T00:30:52.814Z,98736.06
2022-10-05T00:33:24.104Z,98734.77
2022-10-05T00:35:54.982Z,98736.22
2022-10-05T00:38:25.560Z,98734.36
2022-10-05T00:41:04.426Z,98728.86
2022-10-05T00:43:50.015Z,98716.98
2022-10-05T00:46:23.856Z,98716.16
2022-10-05T00:49:00.104Z,98721.75
2022-10-05T00:51:31.361Z,98726.13
2022-10-05T00:54:18.143Z,98724.94
2022-10-05T00:57:10.641Z,98722.36
2022-10-05T00:59:50.730Z,98723.76
2022-10-05T01:02:30.011Z,98721.36
2022-10-05T01:05:06.842Z,98728.10
2022-10-05T01:07:42.386Z,98726.38
2022-10-05T01:10:19.217Z,98725.88
2022-10-05T01:12:58.476Z,98720.20
2022-10-05T01:15:34.246Z,98718.13
2022-10-05T01:18:08.581Z,98723.34
2022-10-05T01:20:44.829Z,98728.69
2022-10-05T01:23:33.293Z,98725.06
2022-10-05T01:26:13.903Z,98720.40
2022-10-05T01:28:50.482Z,98719.91
2022-10-05T01:31:25.100Z,98719.23
2022-10-05T01:34:05.768Z,98727.17
2022-10-05T01:36:47.244Z,98723.86
2022-10-05T01:39:24.035Z,98722.27
2022-10-05T01:42:00.153Z,98718.45
2022-10-05T01:44:34.573Z,98715.50
2022-10-05T01:47:10.229Z,98710.13
2022-10-05T01:49:45.972Z,98707.20
2022-10-05T01:52:27.221Z,98703.42
2022-10-05T01:55:09.582Z,98699.79
2022-10-05T01:57:48.872Z,98695.48
2022-10-05T02:00:20.639Z,98690.79
2022-10-05T02:02:53.847Z,98684.06
2022-10-05T02:05:27.179Z,98680.81
2022-10-05T02:08:01.188Z,98681.52
2022-10-05T02:10:34.191Z,98679.66
2022-10-05T02:13:04.344Z,98678.63
2022-10-05T02:15:39.667Z,98679.31
2022-10-05T02:18:13.698Z,98677.42
2022-10-05T02:20:44.990Z,98674.81
2022-10-05T02:23:19.094Z,98670.86
2022-10-05T02:25:50.915Z,98665.52
2022-10-05T02:28:24.638Z,98664.99
2022-10-05T02:30:59.000Z,98662.93
2022-10-05T02:33:31.919Z,98660.02
2022-10-05T02:36:14.641Z,98655.53
2022-10-05T02:38:56.933Z,98652.96
2022-10-05T02:41:35.583Z,98649.87
2022-10-05T02:44:12.044Z,98654.05
2022-10-05T02:46:47.296Z,98653.75
2022-10-05T02:49:23.924Z,98652.05
2022-10-05T02:52:01.287Z,98649.15
2022-10-05T02:54:40.084Z,98653.15
2022-10-05T02:57:15.833Z,98651.81
2022-10-05T02:59:48.790Z,98654.61
2022-10-05T03:02:19.536Z,98653.45
2022-10-05T03:04:56.242Z,98651.74
2022-10-05T03:07:30.622Z,98654.71
2022-10-05T03:10:04.793Z,98655.61
2022-10-05T03:12:45.957Z,98657.72
2022-10-05T03:15:46.498Z,98658.77
2022-10-05T03:18:26.352Z,98658.48
2022-10-05T03:21:10.910Z,98664.34
2022-10-05T03:23:52.024Z,98666.89
2022-10-05T03:26:30.739Z,98665.10
2022-10-05T03:29:08.568Z,98666.22
2022-10-05T03:31:43.644Z,98664.89
2022-10-05T03:34:18.094Z,98661.81
2022-10-05T03:36:52.416Z,98661.14
2022-10-05T03:39:28.783Z,98661.77
2022-10-05T03:42:05.284Z,98659.84
2022-10-05T03:44:40.021Z,98664.30
2022-10-05T03:47:16.184Z,98660.98
2022-10-05T03:50:02.585Z,98660.22
2022-10-05T03:52:37.711Z,98658.38
2022-10-05T03:55:14.731Z,98655.90
2022-10-05T03:57:46.438Z,98650.48
2022-10-05T04:00:20.385Z,98648.73
2022-10-05T04:02:59.138Z,98646.52
2022-10-05T04:05:33.226Z,98649.98
2022-10-05T04:08:06.191Z,98646.66
2022-10-05T04:10:42.751Z,98647.58
2022-10-05T04:13:18.126Z,98648.88
2022-10-05T04:15:54.654Z,98647.23
2022-10-05T04:18:30.942Z,98649.05
2022-10-05T04:21:05.474Z,98644.66
2022-10-05T04:23:46.556Z,98645.69
2022-10-05T04:26:20.980Z,98641.38
2022-10-05T04:28:56.348Z,98641.23
2022-10-05T04:31:38.207Z,98648.02
2022-10-05T04:34:19.594Z,98648.05
2022-10-05T04:36:54.245Z,98652.54
2022-10-05T04:39:32.359Z,98653.27
2022-10-05T04:42:10.178Z,98655.20
2022-10-05T04:44:59.440Z,98663.39
2022-10-05T04:47:56.688Z,98658.94
2022-10-05T04:57:53.979Z,98658.02
2022-10-05T05:00:29.385Z,98660.04
2022-10-05T05:03:34.248Z,98661.45
2022-10-05T05:06:17.318Z,98660.96
2022-10-05T05:09:06.053Z,98664.97
2022-10-05T05:11:42.810Z,98661.54
2022-10-05T05:14:26.671Z,98669.07
2022-10-05T05:17:12.877Z,98669.48
2022-10-05T05:19:52.777Z,98676.96
2022-10-05T05:22:30.044Z,98678.35
2022-10-05T05:25:17.410Z,98679.25
2022-10-05T05:27:52.482Z,98680.17
2022-10-05T05:30:26.389Z,98672.98
2022-10-05T05:33:09.700Z,98676.51
2022-10-05T05:36:23.514Z,98680.20
2022-10-05T05:39:05.351Z,98678.73
2022-10-05T05:41:40.164Z,98678.77
2022-10-05T05:44:18.738Z,98682.83
2022-10-05T05:47:10.650Z,98685.65
2022-10-05T05:49:46.067Z,98686.19
2022-10-05T05:58:20.175Z,98682.16
2022-10-05T06:00:53.826Z,98683.52
2022-10-05T06:03:27.622Z,98681.40
2022-10-05T06:06:00.369Z,98681.88
2022-10-05T06:08:36.445Z,98676.30
2022-10-05T06:11:17.498Z,98672.80
2022-10-05T06:13:49.418Z,98676.94
2022-10-05T06:16:24.491Z,98673.78
2022-10-05T06:18:58.488Z,98674.11
2022-10-05T06:21:35.739Z,98676.97
2022-10-05T06:24:10.977Z,98678.73
2022-10-05T06:27:11.485Z,98679.10
2022-10-05T06:29:52.738Z,98682.02
2022-10-05T06:32:28.644Z,98683.44
2022-10-05T06:35:10.816Z,98687.60
2022-10-05T06:37:59.813Z,98686.19
2022-10-05T06:40:40.103Z,98689.45
2022-10-05T06:43:21.594Z,98685.45
2022-10-05T06:46:17.934Z,98687.33
2022-10-05T06:49:19.094Z,98685.54
2022-10-05T06:52:19.944Z,98688.44
2022-10-05T06:55:00.284Z,98686.32
2022-10-05T06:57:43.944Z,98694.10
2022-10-05T07:00:20.535Z,98692.69
2022-10-05T07:02:57.346Z,98690.60
2022-10-05T07:05:47.895Z,98694.27
2022-10-05T07:08:24.200Z,98695.00
2022-10-05T07:11:05.044Z,98695.65
2022-10-05T07:13:49.950Z,98697.42
2022-10-05T07:16:27.516Z,98697.45
2022-10-05T07:19:11.388Z,98699.73
2022-10-05T07:21:46.858Z,98701.21
2022-10-05T07:24:29.543Z,98702.63
2022-10-05T07:27:07.536Z,98703.90
2022-10-05T07:29:44.519Z,98706.61
2022-10-05T07:32:23.151Z,98706.49
2022-10-05T07:34:59.146Z,98706.11
2022-10-05T07:37:53.799Z,98702.59
2022-10-05T07:40:30.532Z,98705.46
2022-10-05T07:43:18.420Z,98707.36
2022-10-05T07:45:52.404Z,98709.71
2022-10-05T07:48:24.245Z,98710.33
2022-10-05T07:51:01.763Z,98705.35
2022-10-05T07:53:36.542Z,98710.01
2022-10-05T07:56:13.654Z,98715.65
2022-10-05T07:58:47.918Z,98713.53
2022-10-05T08:01:22.674Z,98715.13
2022-10-05T08:04:00.002Z,98716.84
2022-10-05T08:06:47.970Z,98715.52
2022-10-05T08:09:29.960Z,98710.58
2022-10-05T08:12:11.626Z,98711.45
2022-10-05T08:14:47.685Z,98708.81
2022-10-05T08:17:26.516Z,98710.73
2022-10-05T08:20:04.681Z,98706.20
2022-10-05T08:22:41.835Z,98709.29
2022-10-05T08:25:19.319Z,98711.92
2022-10-05T08:27:53.636Z,98713.44
2022-10-05T08:30:24.443Z,98711.90
2022-10-05T08:32:58.841Z,98707.05
2022-10-05T08:35:34.758Z,98702.04
2022-10-05T08:38:09.212Z,98704.70
2022-10-05T08:41:01.339Z,98707.14
2022-10-05T08:43:45.586Z,98707.27
2022-10-05T08:46:37.968Z,98710.38
2022-10-05T08:49:36.139Z,98708.44
2022-10-05T08:52:23.685Z,98703.85
2022-10-05T08:55:27.034Z,98705.67
2022-10-05T08:58:25.886Z,98694.37
2022-10-05T09:01:06.029Z,98696.96
2022-10-05T09:04:19.496Z,98699.96
2022-10-05T09:07:12.211Z,98698.25
2022-10-05T09:10:18.877Z,98696.05
2022-10-05T09:13:10.484Z,98693.88
2022-10-05T09:16:07.293Z,98699.13
2022-10-05T09:18:57.025Z,98696.98
2022-10-05T09:21:39.722Z,98701.63
2022-10-05T09:24:21.567Z,98705.71
2022-10-05T09:27:01.445Z,98708.39
2022-10-05T09:29:51.384Z,98706.19
2022-10-05T09:32:40.992Z,98702.86
2022-10-05T09:35:25.633Z,98703.10
2022-10-05T09:38:17.496Z,98701.27
2022-10-05T09:41:20.401Z,98707.09
2022-10-05T09:44:27.441Z,98700.55
2022-10-05T09:47:07.264Z,98699.55
2022-10-05T09:50:03.964Z,98697.05
2022-10-05T09:53:05.881Z,98695.78
2022-10-05T09:56:06.366Z,98685.95
2022-10-05T09:59:14.368Z,98682.06
2022-10-05T10:02:05.284Z,98674.75
2022-10-05T10:05:01.789Z,98672.55
2022-10-05T10:08:10.055Z,98673.55
2022-10-05T10:11:11.511Z,98674.27
2022-10-05T10:13:55.794Z,98673.62
2022-10-05T10:16:35.801Z,98672.36
2022-10-05T10:19:24.132Z,98671.88
2022-10-05T10:22:42.947Z,98673.76
2022-10-05T10:25:27.434Z,98667.20
2022-10-05T10:28:14.857Z,98671.60
2022-10-05T10:30:55.758Z,98680.48
2022-10-05T10:33:47.669Z,98689.67
2022-10-05T10:36:21.452Z,98691.66
2022-10-05T10:38:58.476Z,98690.90
2022-10-05T10:41:43.645Z,98690.15
2022-10-05T10:44:48.933Z,98689.29
2022-10-05T10:47:41.945Z,98691.86
2022-10-05T10:50:45.097Z,98695.77
2022-10-05T10:53:32.699Z,98687.62
2022-10-05T10:56:24.240Z,98682.92
2022-10-05T10:59:17.225Z,98677.95
2022-10-05T11:02:02.556Z,98675.95
2022-10-05T11:10:41.572Z,98664.34
2022-10-05T11:13:47.714Z,98660.48
2022-10-05T11:16:31.932Z,98658.55
2022-10-05T11:19:40.271Z,98651.02
2022-10-05T11:22:42.158Z,98649.67
2022-10-05T11:25:23.226Z,98649.23
2022-10-05T11:28:06.538Z,98646.21
2022-10-05T11:30:57.505Z,98640.91
2022-10-05T11:34:06.698Z,98639.30
2022-10-05T11:37:07.638Z,98637.80
2022-10-05T11:39:46.131Z,98637.02
2022-10-05T11:43:01.972Z,98632.67
2022-10-05T11:45:40.883Z,98627.52
2022-10-05T11:48:33.543Z,98625.91
2022-10-05T11:51:30.104Z,98625.33
2022-10-05T11:54:07.874Z,98624.49
2022-10-05T11:56:41.697Z,98626.63
2022-10-05T11:59:18.878Z,98621.45
2022-10-05T12:01:53.929Z,98618.71
2022-10-05T12:04:30.736Z,98612.36
2022-10-05T12:07:10.662Z,98612.96
2022-10-05T12:10:17.313Z,98614.80
2022-10-05T12:12:59.000Z,98611.63
2022-10-05T12:15:32.422Z,98612.07
2022-10-05T12:18:08.247Z,98597.65
2022-10-05T12:20:45.940Z,98598.42
2022-10-05T12:23:21.439Z,98597.95
2022-10-05T12:25:56.656Z,98591.49
2022-10-05T12:28:33.645Z,98587.02
2022-10-05T12:31:13.310Z,98586.47
2022-10-05T12:33:50.416Z,98580.56
2022-10-05T12:36:28.613Z,98572.33
2022-10-05T12:39:13.321Z,98568.94
2022-10-05T12:41:48.883Z,98567.24
2022-10-05T12:44:42.958Z,98568.09
2022-10-05T12:47:20.899Z,98564.41
2022-10-05T12:50:00.824Z,98557.44
2022-10-05T12:52:43.305Z,98555.59
2022-10-05T12:55:21.661Z,98556.34
2022-10-05T12:58:05.258Z,98551.97
2022-10-05T13:00:37.806Z,98549.83
2022-10-05T13:03:16.101Z,98551.42
2022-10-05T13:05:50.402Z,98546.80
2022-10-05T13:08:24.670Z,98549.82
2022-10-05T13:11:01.877Z,98544.71
2022-10-05T13:13:47.179Z,98542.57
2022-10-05T13:16:27.468Z,98536.08
2022-10-05T13:19:07.389Z,98535.10
2022-10-05T13:21:49.848Z,98535.12
2022-10-05T13:24:26.604Z,98535.67
2022-10-05T13:27:02.130Z,98532.23
2022-10-05T13:29:36.241Z,98530.31
2022-10-05T13:32:12.788Z,98531.31
2022-10-05T13:34:47.421Z,98535.54
2022-10-05T13:37:24.066Z,98534.54
2022-10-05T13:40:04.722Z,98530.27
2022-10-05T13:42:38.486Z,98534.48
2022-10-05T13:45:15.067Z,98538.64
2022-10-05T13:47:53.485Z,98536.34
2022-10-05T13:50:29.721Z,98535.20
2022-10-05T13:53:10.412Z,98536.61
2022-10-05T13:55:44.541Z,98535.14
2022-10-05T13:58:20.411Z,98534.91
2022-10-05T14:00:53.912Z,98535.15
2022-10-05T14:03:29.278Z,98535.64
2022-10-05T14:06:01.457Z,98535.08
2022-10-05T14:08:35.154Z,98534.78
2022-10-05T14:14:14.340Z,98532.09
2022-10-05T14:16:52.940Z,98533.04
2022-10-05T14:19:28.063Z,98530.48
2022-10-05T14:22:04.104Z,98529.08
2022-10-05T14:24:45.036Z,98527.27
2022-10-05T14:27:23.572Z,98526.50
2022-10-05T14:30:02.960Z,98521.58
2022-10-05T14:32:44.121Z,98515.60
2022-10-05T14:35:20.664Z,98521.17
2022-10-05T14:37:57.232Z,98513.38
2022-10-05T14:40:30.922Z,98513.67
2022-10-05T14:43:16.455Z,98509.33
2022-10-05T14:45:56.545Z,98505.77
2022-10-05T14:48:28.327Z,98500.78
2022-10-05T14:51:03.206Z,98498.92
2022-10-05T14:53:43.229Z,98493.92
2022-10-05T14:56:28.510Z,98491.99
2022-10-05T14:59:10.363Z,98492.91
2022-10-05T15:01:46.176Z,98491.02
2022-10-05T15:04:33.805Z,98489.98
2022-10-05T15:07:19.404Z,98481.08
2022-10-05T15:10:07.413Z,98478.70
2022-10-05T15:12:41.431Z,98472.11
2022-10-05T15:15:28.761Z,98469.39
2022-10-05T15:18:02.577Z,98461.87
2022-10-05T15:20:39.182Z,98465.66
2022-10-05T15:23:24.741Z,98464.90
2022-10-05T15:26:08.803Z,98464.05
2022-10-05T15:28:48.272Z,98461.77
2022-10-05T15:31:26.883Z,98458.41
2022-10-05T15:34:01.983Z,98454.05
2022-10-05T15:36:39.228Z,98452.19
2022-10-05T15:39:16.676Z,98452.70
2022-10-05T15:41:55.260Z,98454.27
2022-10-05T15:44:34.226Z,98451.05
2022-10-05T15:47:07.058Z,98459.08
2022-10-05T15:49:37.604Z,98455.36
2022-10-05T15:52:17.738Z,98457.98
2022-10-05T15:55:23.775Z,98455.40
2022-10-05T15:58:01.358Z,98450.81
2022-10-05T16:00:36.453Z,98447.04
2022-10-05T16:03:16.166Z,98454.98
2022-10-05T16:06:08.050Z,98454.40
2022-10-05T16:08:54.173Z,98457.03
2022-10-05T16:11:40.455Z,98456.27
2022-10-05T16:14:27.994Z,98461.45
2022-10-05T16:17:09.634Z,98462.40
2022-10-05T16:19:46.196Z,98464.58
2022-10-05T16:22:22.165Z,98468.92
2022-10-05T16:25:09.761Z,98469.83
2022-10-05T16:27:49.463Z,98475.95
2022-10-05T16:30:22.506Z,98476.52
2022-10-05T16:32:57.601Z,98484.05
2022-10-05T16:35:37.377Z,98486.23
2022-10-05T16:38:19.344Z,98479.33
2022-10-05T16:41:01.048Z,98483.73
2022-10-05T16:43:39.088Z,98482.15
2022-10-05T16:46:16.500Z,98486.23
2022-10-05T16:48:54.885Z,98485.47
2022-10-05T16:51:32.828Z,98488.26
2022-10-05T16:54:18.312Z,98491.34
2022-10-05T16:56:52.199Z,98495.86
2022-10-05T16:59:55.526Z,98496.14
2022-10-05T17:02:39.381Z,98497.52
2022-10-05T17:05:24.029Z,98497.17
2022-10-05T17:08:18.470Z,98498.70
2022-10-05T17:10:59.666Z,98500.22
2022-10-05T17:13:44.423Z,98506.49
2022-10-05T17:16:23.173Z,98505.80
2022-10-05T17:19:24.698Z,98515.13
2022-10-05T17:22:00.368Z,98519.45
2022-10-05T17:24:53.348Z,98518.93
2022-10-05T17:27:52.430Z,98521.50
2022-10-05T17:30:38.998Z,98527.11
2022-10-05T17:33:25.528Z,98534.77
2022-10-05T17:36:17.154Z,98545.16
2022-10-05T17:38:53.373Z,98548.20
2022-10-05T17:41:29.527Z,98553.19
2022-10-05T17:44:20.871Z,98557.02
2022-10-05T17:46:52.577Z,98562.70
2022-10-05T17:50:15.630Z,98559.08
2022-10-05T17:53:03.873Z,98565.43
2022-10-05T17:55:46.010Z,98571.83
2022-10-05T17:59:04.774Z,98579.44
2022-10-05T18:01:39.726Z,98579.88
2022-10-05T18:04:42.048Z,98581.83
2022-10-05T18:07:23.121Z,98584.40
2022-10-05T18:10:22.359Z,98583.73
2022-10-05T18:13:12.795Z,98588.65
2022-10-05T18:15:51.558Z,98592.23
2022-10-05T18:18:52.838Z,98589.23
2022-10-05T18:21:29.829Z,98597.58
2022-10-05T18:24:21.787Z,98602.18
2022-10-05T18:27:00.065Z,98604.67
2022-10-05T18:30:09.101Z,98598.98
2022-10-05T18:32:50.004Z,98602.63
2022-10-05T18:35:23.108Z,98601.58
2022-10-05T18:38:03.021Z,98600.11
2022-10-05T18:40:41.127Z,98600.63
2022-10-05T18:43:24.687Z,98600.61
2022-10-05T18:46:05.518Z,98602.22
2022-10-05T18:48:40.510Z,98608.48
2022-10-05T18:51:19.179Z,98609.65
2022-10-05T18:54:00.968Z,98614.96
2022-10-05T18:56:37.424Z,98612.92
2022-10-05T18:59:19.898Z,98622.29
2022-10-05T19:01:58.252Z,98627.98
2022-10-05T19:04:36.035Z,98626.92
2022-10-05T19:07:18.015Z,98636.28
2022-10-05T19:09:59.683Z,98638.16
2022-10-05T19:12:41.669Z,98642.27
2022-10-05T19:15:19.690Z,98648.73
2022-10-05T19:18:08.613Z,98650.20
2022-10-05T19:20:43.116Z,98658.71
2022-10-05T19:23:27.043Z,98668.59
2022-10-05T19:26:03.245Z,98668.77
2022-10-05T19:28:38.292Z,98671.23
2022-10-05T19:31:23.912Z,98666.59
2022-10-05T19:34:11.179Z,98672.94
2022-10-05T19:36:50.089Z,98666.97
2022-10-05T19:39:28.426Z,98669.05
2022-10-05T19:42:13.627Z,98673.08
2022-10-05T19:44:54.054Z,98676.80
2022-10-05T19:47:31.842Z,98682.58
2022-10-05T19:50:19.869Z,98681.73
2022-10-05T19:52:53.180Z,98689.39
2022-10-05T19:55:35.276Z,98692.27
2022-10-05T19:58:19.499Z,98693.46
2022-10-05T20:00:59.445Z,98693.44
2022-10-05T20:03:31.830Z,98694.73
2022-10-05T20:06:03.950Z,98694.17
2022-10-05T20:08:43.651Z,98696.67
2022-10-05T20:11:16.312Z,98701.95
2022-10-05T20:14:12.857Z,98705.88
2022-10-05T20:17:00.688Z,98706.10
2022-10-05T20:19:55.635Z,98704.48
2022-10-05T20:22:32.711Z,98717.59
2022-10-05T20:25:06.366Z,98721.23
2022-10-05T20:27:46.813Z,98722.80
2022-10-05T20:30:19.421Z,98722.29
2022-10-05T20:32:52.963Z,98726.48
2022-10-05T20:35:23.584Z,98735.88
2022-10-05T20:37:54.022Z,98743.09
2022-10-05T20:40:24.342Z,98746.77
2022-10-05T20:42:54.927Z,98747.63
2022-10-05T20:45:25.295Z,98748.57
2022-10-05T20:47:55.615Z,98750.54
2022-10-05T20:50:27.516Z,98749.89
2022-10-05T20:52:57.881Z,98746.65
2022-10-05T20:55:31.421Z,98747.11
2022-10-05T20:58:02.003Z,98750.92
2022-10-05T21:00:52.863Z,98750.02
2022-10-05T21:03:23.327Z,98749.88
2022-10-05T21:05:53.941Z,98750.90
2022-10-05T21:08:25.136Z,98755.47
2022-10-05T21:10:55.870Z,98761.20
2022-10-05T21:13:27.063Z,98764.33
2022-10-05T21:15:57.477Z,98764.30
2022-10-05T21:18:28.208Z,98766.38
2022-10-05T21:21:02.042Z,98777.48
2022-10-05T21:23:33.519Z,98771.75
2022-10-05T21:26:04.379Z,98773.73
2022-10-05T21:28:35.047Z,98774.88
2022-10-05T21:31:05.843Z,98777.71
2022-10-05T21:33:37.058Z,98775.41
2022-10-05T21:36:07.653Z,98774.15
2022-10-05T21:38:38.087Z,98774.17
2022-10-05T21:41:08.775Z,98782.73
2022-10-05T21:43:39.397Z,98781.89
2022-10-05T21:46:10.467Z,98782.02
2022-10-05T21:48:42.152Z,98785.14
2022-10-05T21:51:16.464Z,98786.09
2022-10-05T21:53:51.091Z,98788.22
2022-10-05T21:56:23.466Z,98793.66
2022-10-05T21:58:54.395Z,98795.85
2022-10-05T22:01:25.024Z,98800.47
2022-10-05T22:03:56.920Z,98801.55
2022-10-05T22:06:27.412Z,98804.27
2022-10-05T22:08:57.793Z,98812.85
2022-10-05T22:11:29.014Z,98819.55
2022-10-05T22:14:02.573Z,98824.23
2022-10-05T22:16:35.481Z,98827.95
2022-10-05T22:19:05.266Z,98828.45
2022-10-05T22:21:38.146Z,98829.48
2022-10-05T22:24:09.119Z,98827.26
2022-10-05T22:26:39.815Z,98828.31
2022-10-05T22:29:10.527Z,98839.52
2022-10-05T22:31:41.189Z,98837.94
2022-10-05T22:34:11.656Z,98841.47
2022-10-05T22:36:42.730Z,98842.05
2022-10-05T22:39:13.128Z,98847.68
2022-10-05T22:41:43.998Z,98841.42
2022-10-05T22:44:14.386Z,98843.59
2022-10-05T22:46:44.818Z,98847.05
2022-10-05T22:49:15.260Z,98854.55
2022-10-05T22:51:45.747Z,98855.16
2022-10-05T22:54:16.180Z,98855.70
2022-10-05T22:56:46.660Z,98865.43
2022-10-05T22:59:17.771Z,98866.56
2022-10-05T23:01:48.491Z,98865.76
2022-10-05T23:04:19.114Z,98866.57
2022-10-05T23:06:49.676Z,98855.86
2022-10-05T23:09:20.281Z,98853.02
2022-10-05T23:11:53.936Z,98854.75
2022-10-05T23:14:24.570Z,98865.90
2022-10-05T23:16:54.985Z,98868.39
2022-10-05T23:19:25.918Z,98863.67
2022-10-05T23:21:56.914Z,98865.44
2022-10-05T23:24:27.354Z,98863.45
2022-10-05T23:26:57.785Z,98867.98
2022-10-05T23:29:28.652Z,98871.64
2022-10-05T23:31:59.930Z,98872.40
2022-10-05T23:34:30.337Z,98873.34
2022-10-05T23:37:00.770Z,98874.92
2022-10-05T23:39:31.208Z,98874.43
2022-10-05T23:42:01.651Z,98878.20
2022-10-05T23:44:32.048Z,98879.33
2022-10-05T23:47:02.512Z,98881.48
2022-10-05T23:49:33.433Z,98885.38
2022-10-05T23:52:04.087Z,98887.00
2022-10-05T23:54:34.422Z,98883.89
2022-10-05T23:57:04.982Z,98881.84
2022-10-05T23:59:35.349Z,98889.02
